Time;durP1;ratioP1;P1;durP2;ratioP2;P2;SDS_P1;SDS_P2;PMS_P1;PMS_P2;Temp;Humidity;BMP_temperature;BMP_pressure;BME280_temperature;BME280_humidity;BME280_pressure;Samples;Min_cycle;Max_cycle;Signal;HPM_P1;HPM_P2
2024/03/31 00:01:05;;;;;;;6.05;2.70;;;19.90;60.00;;;;;;5024540;28;20047;-55
2024/03/31 00:03:31;;;;;;;6.57;2.80;;;19.80;60.00;;;;;;5030753;28;20041;-55
2024/03/31 00:05:57;;;;;;;5.28;3.22;;;19.90;60.00;;;;;;5027485;28;20106;-52
2024/03/31 00:08:22;;;;;;;5.35;2.40;;;19.90;60.00;;;;;;5016996;28;20497;-55
2024/03/31 00:10:48;;;;;;;5.25;3.00;;;19.90;60.00;;;;;;4994575;28;20353;-56
2024/03/31 00:13:14;;;;;;;5.85;2.67;;;19.90;60.00;;;;;;5016745;28;20038;-57
2024/03/31 00:15:39;;;;;;;5.60;2.90;;;19.90;60.10;;;;;;5024002;28;20516;-55
2024/03/31 00:18:05;;;;;;;7.38;2.55;;;19.80;60.00;;;;;;5020395;28;20067;-54
2024/03/31 00:20:30;;;;;;;5.70;2.08;;;19.90;60.10;;;;;;5029358;28;20036;-56
2024/03/31 00:22:56;;;;;;;7.93;2.67;;;19.80;60.00;;;;;;5028184;28;20034;-64
2024/03/31 00:25:22;;;;;;;7.22;2.20;;;19.80;60.70;;;;;;5020500;28;20039;-54
2024/03/31 00:27:47;;;;;;;10.82;3.25;;;19.80;60.00;;;;;;5038545;28;20445;-54
2024/03/31 00:30:12;;;;;;;7.55;2.72;;;19.80;60.00;;;;;;5034974;28;20033;-55
2024/03/31 00:32:38;;;;;;;7.93;2.55;;;19.80;60.10;;;;;;5030913;28;20033;-54
2024/03/31 00:35:04;;;;;;;4.47;2.80;;;19.80;60.00;;;;;;5021750;28;20573;-54
2024/03/31 00:37:29;;;;;;;6.95;2.90;;;19.80;60.10;;;;;;5029306;28;20021;-55
2024/03/31 00:39:55;;;;;;;6.75;2.65;;;19.80;60.10;;;;;;5030844;28;20087;-57
2024/03/31 00:42:21;;;;;;;6.32;2.60;;;19.80;60.00;;;;;;5045124;28;20067;-62
2024/03/31 00:44:46;;;;;;;5.55;2.70;;;19.80;60.10;;;;;;5034382;28;20021;-55
2024/03/31 00:47:12;;;;;;;4.63;2.15;;;19.80;60.10;;;;;;5034043;28;20043;-55
2024/03/31 00:49:37;;;;;;;6.15;2.80;;;19.80;60.20;;;;;;5023394;28;20492;-55
2024/03/31 00:52:03;;;;;;;7.97;2.97;;;19.80;60.10;;;;;;5028159;28;20033;-52
2024/03/31 00:54:31;;;;;;;7.63;2.90;;;19.80;60.10;;;;;;5028825;28;20045;-54
2024/03/31 00:56:57;;;;;;;4.50;2.22;;;19.80;60.10;;;;;;5032039;28;20025;-53
2024/03/31 00:59:22;;;;;;;6.32;3.33;;;19.80;60.10;;;;;;5027990;28;20516;-54
2024/03/31 01:01:48;;;;;;;4.22;2.17;;;19.80;60.10;;;;;;5027454;28;20028;-54
2024/03/31 01:04:14;;;;;;;7.30;2.75;;;19.80;60.20;;;;;;5028515;28;20026;-55
2024/03/31 01:06:39;;;;;;;10.30;3.03;;;19.80;60.20;;;;;;5026721;28;20030;-55
2024/03/31 01:09:05;;;;;;;5.55;2.95;;;19.80;60.20;;;;;;5025236;28;20045;-52
2024/03/31 01:11:31;;;;;;;9.40;3.25;;;19.80;60.20;;;;;;5029673;28;20044;-53
2024/03/31 01:13:59;;;;;;;5.43;2.92;;;19.80;60.20;;;;;;5032091;28;20062;-53
2024/03/31 01:16:24;;;;;;;11.60;2.65;;;19.80;60.30;;;;;;5024743;28;20033;-52
2024/03/31 01:18:50;;;;;;;5.07;2.35;;;19.70;60.20;;;;;;5025638;28;20033;-53
2024/03/31 01:21:15;;;;;;;2.92;1.98;;;19.70;60.30;;;;;;5024854;28;20029;-55
2024/03/31 01:23:44;;;;;;;8.95;2.83;;;19.70;60.40;;;;;;5030332;28;20529;-56
2024/03/31 01:26:10;;;;;;;7.28;2.72;;;19.70;60.40;;;;;;5033194;28;20038;-55
2024/03/31 01:28:36;;;;;;;7.25;2.63;;;19.70;60.40;;;;;;5031017;28;20029;-55
2024/03/31 01:31:01;;;;;;;4.63;2.20;;;19.70;60.40;;;;;;5027832;28;20029;-54
2024/03/31 01:33:27;;;;;;;5.78;2.60;;;19.70;60.50;;;;;;5033885;28;20056;-56
2024/03/31 01:35:52;;;;;;;5.78;2.13;;;19.70;60.50;;;;;;5025596;28;20175;-52
2024/03/31 01:38:18;;;;;;;6.90;2.45;;;19.70;60.50;;;;;;5031929;28;20037;-57
2024/03/31 01:40:44;;;;;;;8.30;2.58;;;19.70;60.50;;;;;;5028790;28;20483;-54
2024/03/31 01:43:09;;;;;;;6.47;2.78;;;19.70;60.60;;;;;;5029126;28;20042;-54
2024/03/31 01:45:34;;;;;;;6.93;2.60;;;19.60;60.50;;;;;;5030911;28;20394;-52
2024/03/31 01:48:00;;;;;;;6.78;2.33;;;19.60;60.50;;;;;;5025615;28;20052;-54
2024/03/31 01:50:26;;;;;;;8.40;2.70;;;19.60;60.50;;;;;;5029229;28;20036;-53
2024/03/31 01:52:51;;;;;;;9.57;3.30;;;19.60;60.50;;;;;;5027039;28;21104;-55
2024/03/31 01:55:17;;;;;;;7.93;2.55;;;19.60;60.50;;;;;;5030876;28;20033;-55
2024/03/31 01:57:43;;;;;;;5.22;2.75;;;19.60;60.50;;;;;;5035073;28;20536;-54
2024/03/31 02:00:09;;;;;;;6.32;2.83;;;19.70;60.60;;;;;;5011248;28;20040;-55
2024/03/31 02:02:34;;;;;;;6.93;3.22;;;19.60;60.60;;;;;;4995568;28;20036;-55
2024/03/31 02:05:00;;;;;;;7.25;2.60;;;19.60;60.50;;;;;;5028484;28;20025;-52
2024/03/31 02:07:25;;;;;;;6.95;2.90;;;19.60;60.50;;;;;;5034068;28;20056;-53
2024/03/31 02:09:51;;;;;;;9.93;3.05;;;19.60;60.60;;;;;;5022350;28;20112;-55
2024/03/31 02:12:16;;;;;;;6.80;2.58;;;19.60;60.50;;;;;;5025679;28;20543;-53
2024/03/31 02:14:42;;;;;;;8.70;2.63;;;19.60;60.60;;;;;;5027727;28;20029;-55
2024/03/31 02:17:07;;;;;;;6.10;2.17;;;19.60;60.60;;;;;;5016935;28;20449;-54
2024/03/31 02:19:33;;;;;;;9.93;3.33;;;19.60;60.60;;;;;;5040048;28;20032;-53
2024/03/31 02:21:58;;;;;;;6.90;2.33;;;19.60;60.60;;;;;;5018721;28;20628;-54
2024/03/31 02:24:24;;;;;;;6.03;2.30;;;19.60;60.60;;;;;;5020166;28;20023;-54
2024/03/31 02:26:49;;;;;;;8.27;2.42;;;19.60;61.20;;;;;;4971520;28;20131;-53
2024/03/31 02:29:14;;;;;;;6.75;2.38;;;19.60;60.60;;;;;;5013555;28;20017;-56
2024/03/31 02:31:40;;;;;;;6.85;2.42;;;19.60;60.60;;;;;;5029716;28;20040;-55
2024/03/31 02:34:05;;;;;;;6.43;2.40;;;19.60;60.60;;;;;;5021282;28;20043;-56
2024/03/31 02:36:31;;;;;;;5.57;2.28;;;19.60;60.60;;;;;;5031393;28;20513;-55
2024/03/31 02:38:58;;;;;;;8.02;2.83;;;19.60;60.60;;;;;;5028618;28;20033;-54
2024/03/31 02:41:24;;;;;;;5.82;2.55;;;19.60;60.70;;;;;;5033628;28;20028;-55
2024/03/31 02:43:49;;;;;;;7.80;2.97;;;19.60;60.60;;;;;;5035579;28;20094;-56
2024/03/31 02:46:15;;;;;;;6.18;2.80;;;19.60;60.60;;;;;;5030360;28;20029;-52
2024/03/31 02:48:41;;;;;;;6.00;2.60;;;19.50;60.80;;;;;;5032752;28;20085;-55
2024/03/31 02:51:06;;;;;;;6.57;2.80;;;19.60;60.70;;;;;;5035813;28;20505;-52
2024/03/31 02:53:32;;;;;;;6.65;3.15;;;19.60;60.70;;;;;;5025764;28;20427;-53
2024/03/31 02:55:57;;;;;;;9.20;3.00;;;19.60;60.70;;;;;;5038341;28;20030;-55
2024/03/31 02:58:23;;;;;;;7.32;3.05;;;19.60;60.70;;;;;;5032217;28;20062;-54
2024/03/31 03:00:48;;;;;;;7.03;3.03;;;19.50;60.70;;;;;;5022798;28;20064;-52
2024/03/31 03:03:14;;;;;;;4.97;2.50;;;19.50;60.70;;;;;;5013404;28;20110;-52
2024/03/31 03:05:39;;;;;;;6.53;2.67;;;19.50;60.60;;;;;;5015265;28;20471;-53
2024/03/31 03:08:05;;;;;;;7.28;2.40;;;19.50;60.70;;;;;;5023031;28;20112;-51
2024/03/31 03:10:31;;;;;;;5.57;2.50;;;19.50;60.70;;;;;;5025474;28;20056;-56
2024/03/31 03:12:59;;;;;;;7.60;3.03;;;19.60;60.70;;;;;;5034740;28;20052;-54
2024/03/31 03:15:24;;;;;;;6.90;2.58;;;19.60;60.70;;;;;;5030248;28;20249;-53
2024/03/31 03:17:52;;;;;;;7.10;2.85;;;19.50;60.70;;;;;;5011668;28;20028;-55
2024/03/31 03:20:18;;;;;;;6.95;2.92;;;19.50;60.60;;;;;;5023584;28;20037;-55
2024/03/31 03:22:44;;;;;;;8.77;3.33;;;19.50;60.60;;;;;;5027404;28;20102;-54
2024/03/31 03:25:09;;;;;;;6.07;3.05;;;19.50;60.70;;;;;;5034905;28;20633;-57
2024/03/31 03:27:35;;;;;;;6.90;3.50;;;19.60;60.70;;;;;;5034644;28;20017;-54
2024/03/31 03:30:01;;;;;;;7.32;2.65;;;19.50;60.70;;;;;;5024175;28;20068;-53
2024/03/31 03:32:26;;;;;;;5.25;3.33;;;19.50;60.70;;;;;;5033887;28;20550;-53
2024/03/31 03:34:51;;;;;;;6.13;2.50;;;19.50;60.70;;;;;;5049773;28;20043;-54
2024/03/31 03:37:17;;;;;;;6.18;2.55;;;19.50;60.70;;;;;;5048529;28;20386;-54
2024/03/31 03:39:42;;;;;;;7.10;2.50;;;19.50;60.70;;;;;;5050584;28;20039;-52
2024/03/31 03:42:08;;;;;;;8.05;2.90;;;19.50;60.60;;;;;;5053417;28;20375;-56
2024/03/31 03:44:33;;;;;;;4.53;2.72;;;19.50;60.70;;;;;;5049566;28;20033;-52
2024/03/31 03:46:59;;;;;;;6.68;2.85;;;19.50;60.70;;;;;;5044994;28;20117;-53
2024/03/31 03:49:24;;;;;;;10.05;3.47;;;19.50;60.70;;;;;;5050850;28;20446;-55
2024/03/31 03:51:51;;;;;;;8.32;2.75;;;19.50;60.70;;;;;;5050335;28;20032;-52
2024/03/31 03:54:17;;;;;;;8.18;2.95;;;19.50;60.70;;;;;;5046815;28;20082;-54
2024/03/31 03:56:44;;;;;;;6.55;3.40;;;19.50;60.60;;;;;;5053086;28;20036;-55
2024/03/31 03:59:12;;;;;;;7.50;3.20;;;19.50;60.70;;;;;;5047949;28;20025;-52
2024/03/31 04:01:37;;;;;;;6.32;2.42;;;19.50;60.70;;;;;;5054441;28;20110;-54
2024/03/31 04:04:03;;;;;;;8.75;2.83;;;19.50;60.60;;;;;;5048509;28;20025;-52
2024/03/31 04:06:29;;;;;;;4.80;2.63;;;19.50;60.70;;;;;;5049167;28;20540;-55
2024/03/31 04:08:54;;;;;;;8.77;3.63;;;19.50;60.60;;;;;;5045030;28;20036;-54
2024/03/31 04:11:21;;;;;;;4.80;2.38;;;19.50;60.60;;;;;;5048650;28;20517;-55
2024/03/31 04:13:48;;;;;;;6.78;2.63;;;19.50;60.60;;;;;;5046581;28;20033;-55
2024/03/31 04:16:14;;;;;;;6.50;2.78;;;19.50;60.60;;;;;;5051852;28;20040;-64
2024/03/31 04:18:39;;;;;;;7.70;2.88;;;19.50;60.50;;;;;;5048951;28;20393;-53
2024/03/31 04:21:07;;;;;;;10.38;3.05;;;19.50;60.50;;;;;;5049812;28;20091;-54
2024/03/31 04:23:33;;;;;;;7.07;2.85;;;19.50;60.50;;;;;;5049212;28;20393;-55
2024/03/31 04:25:59;;;;;;;7.75;3.22;;;19.50;60.50;;;;;;5053645;28;20024;-54
2024/03/31 04:28:24;;;;;;;6.70;2.80;;;19.50;60.50;;;;;;5046825;28;20028;-56
2024/03/31 04:30:49;;;;;;;7.47;3.25;;;19.50;60.50;;;;;;5048265;28;20036;-52
2024/03/31 04:33:15;;;;;;;8.05;3.33;;;19.60;60.50;;;;;;5042952;28;20116;-57
2024/03/31 04:35:41;;;;;;;5.78;2.70;;;19.50;60.40;;;;;;5049441;28;20029;-54
2024/03/31 04:38:07;;;;;;;8.77;3.10;;;19.60;60.50;;;;;;5043588;28;20094;-52
2024/03/31 04:40:33;;;;;;;6.35;3.42;;;19.50;60.30;;;;;;5048527;28;20114;-55
2024/03/31 04:42:59;;;;;;;9.70;4.05;;;19.50;60.40;;;;;;5043577;28;20033;-53
2024/03/31 04:45:24;;;;;;;7.00;3.20;;;19.60;60.50;;;;;;5050053;28;20025;-54
2024/03/31 04:47:50;;;;;;;7.10;3.30;;;19.50;60.40;;;;;;5033815;28;20043;-53
2024/03/31 04:50:16;;;;;;;8.18;3.40;;;19.50;60.30;;;;;;5041999;28;20693;-60
2024/03/31 04:52:42;;;;;;;6.65;3.13;;;19.60;60.40;;;;;;5035809;28;20166;-55
2024/03/31 04:55:08;;;;;;;6.90;3.40;;;19.60;60.40;;;;;;5036569;28;20117;-54
2024/03/31 04:57:33;;;;;;;5.90;3.15;;;19.60;60.40;;;;;;5029533;28;20116;-52
2024/03/31 04:59:59;;;;;;;7.43;2.83;;;19.50;60.40;;;;;;5058011;28;20025;-53
2024/03/31 05:02:24;;;;;;;10.80;3.63;;;19.50;60.30;;;;;;5044591;28;20078;-55
2024/03/31 05:04:50;;;;;;;6.45;3.22;;;19.50;60.40;;;;;;5051127;28;20120;-55
2024/03/31 05:07:15;;;;;;;6.65;3.30;;;19.50;60.30;;;;;;5029771;28;20033;-52
2024/03/31 05:09:41;;;;;;;6.32;3.40;;;19.50;60.40;;;;;;5039216;28;20033;-54
2024/03/31 05:12:06;;;;;;;6.65;3.00;;;19.60;60.50;;;;;;5030453;28;20033;-54
2024/03/31 05:14:32;;;;;;;8.13;3.20;;;19.50;60.30;;;;;;5037310;28;20394;-54
2024/03/31 05:16:57;;;;;;;7.90;3.55;;;19.50;60.30;;;;;;5030859;28;20041;-56
2024/03/31 05:19:23;;;;;;;8.23;3.63;;;19.50;60.40;;;;;;5034308;28;20115;-55
2024/03/31 05:21:49;;;;;;;8.40;3.45;;;19.50;60.40;;;;;;5035843;28;21069;-60
2024/03/31 05:24:15;;;;;;;10.48;3.90;;;19.50;60.30;;;;;;5037668;28;20029;-55
2024/03/31 05:26:40;;;;;;;8.80;3.35;;;19.50;60.40;;;;;;5030400;28;20033;-54
2024/03/31 05:29:06;;;;;;;9.70;4.07;;;19.50;60.30;;;;;;5031571;28;20127;-53
2024/03/31 05:31:32;;;;;;;7.05;3.50;;;19.50;60.40;;;;;;5029732;28;20040;-54
2024/03/31 05:33:58;;;;;;;6.50;3.35;;;19.50;60.40;;;;;;5032079;28;20546;-52
2024/03/31 05:36:24;;;;;;;8.63;3.28;;;19.50;60.30;;;;;;5038049;28;20041;-53
2024/03/31 05:38:49;;;;;;;10.40;3.95;;;19.50;60.30;;;;;;5029333;28;20120;-55
2024/03/31 05:41:15;;;;;;;6.30;3.03;;;19.60;60.30;;;;;;5030632;28;20064;-55
2024/03/31 05:43:40;;;;;;;7.78;3.50;;;19.50;60.30;;;;;;5043385;28;20110;-53
2024/03/31 05:46:07;;;;;;;10.30;3.60;;;19.50;60.30;;;;;;5024844;28;20032;-54
2024/03/31 05:48:32;;;;;;;5.95;3.33;;;19.50;60.30;;;;;;5040860;28;20029;-52
2024/03/31 05:50:58;;;;;;;9.38;4.43;;;19.60;60.30;;;;;;5027267;28;20394;-54
2024/03/31 05:53:23;;;;;;;6.13;3.38;;;19.60;60.40;;;;;;5037070;28;20048;-54
2024/03/31 05:55:49;;;;;;;8.35;3.35;;;19.50;60.30;;;;;;5034673;28;20033;-55
2024/03/31 05:58:14;;;;;;;8.43;3.70;;;19.50;60.30;;;;;;5032068;28;20092;-54
2024/03/31 06:00:40;;;;;;;12.13;3.75;;;19.50;60.30;;;;;;5040840;28;20120;-53
2024/03/31 06:03:05;;;;;;;7.40;3.63;;;19.50;60.30;;;;;;5034804;28;20041;-51
2024/03/31 06:05:31;;;;;;;11.43;3.70;;;19.60;60.30;;;;;;5029424;28;20053;-62
2024/03/31 06:07:56;;;;;;;7.43;3.47;;;19.50;60.30;;;;;;5025549;28;20040;-54
2024/03/31 06:10:22;;;;;;;7.47;3.53;;;19.60;60.30;;;;;;5034169;28;20068;-54
2024/03/31 06:12:47;;;;;;;10.10;4.10;;;19.50;60.20;;;;;;5035459;28;20068;-55
2024/03/31 06:15:13;;;;;;;7.50;3.83;;;19.50;60.30;;;;;;5028668;28;20041;-53
2024/03/31 06:17:41;;;;;;;7.60;3.55;;;19.50;60.30;;;;;;5031616;28;20095;-56
2024/03/31 06:20:09;;;;;;;8.50;3.42;;;19.50;60.20;;;;;;5038434;28;20449;-52
2024/03/31 06:22:41;;;;;;;8.77;3.97;;;19.50;60.30;;;;;;5039744;28;20397;-55
2024/03/31 06:25:07;;;;;;;8.82;4.05;;;19.50;60.30;;;;;;5032535;28;20029;-54
2024/03/31 06:27:34;;;;;;;7.15;3.58;;;19.50;60.30;;;;;;5040273;28;20025;-55
2024/03/31 06:29:59;;;;;;;9.75;4.07;;;19.50;60.30;;;;;;5039412;28;20035;-53
2024/03/31 06:32:25;;;;;;;6.78;3.38;;;19.50;60.30;;;;;;5036284;28;20410;-55
2024/03/31 06:34:51;;;;;;;10.82;3.53;;;19.50;60.30;;;;;;5036237;28;20056;-57
2024/03/31 06:37:17;;;;;;;9.15;3.67;;;19.50;60.30;;;;;;5029899;28;20090;-55
2024/03/31 06:39:43;;;;;;;7.45;4.82;;;19.50;60.40;;;;;;5035044;28;20109;-55
2024/03/31 06:42:09;;;;;;;10.73;4.22;;;19.50;60.30;;;;;;5032104;28;20132;-56
2024/03/31 06:44:34;;;;;;;7.85;3.85;;;19.50;60.30;;;;;;5042417;28;20094;-55
2024/03/31 06:47:00;;;;;;;10.57;4.22;;;19.50;60.50;;;;;;5028685;28;20021;-54
2024/03/31 06:49:25;;;;;;;7.38;3.78;;;19.50;60.40;;;;;;5030140;28;20482;-54
2024/03/31 06:51:51;;;;;;;12.05;4.35;;;19.50;60.40;;;;;;5035512;28;21684;-56
2024/03/31 06:54:16;;;;;;;10.75;5.13;;;19.50;60.50;;;;;;5040257;28;20037;-55
2024/03/31 06:56:42;;;;;;;11.95;5.50;;;19.50;60.50;;;;;;5031152;28;20026;-53
2024/03/31 06:59:07;;;;;;;11.32;5.13;;;19.50;60.60;;;;;;5030224;28;20040;-55
2024/03/31 07:01:33;;;;;;;12.65;5.90;;;19.50;60.50;;;;;;5030158;28;20030;-61
2024/03/31 07:03:59;;;;;;;22.90;8.95;;;19.60;61.70;;;;;;5034138;28;20470;-53
2024/03/31 07:06:24;;;;;;;26.42;9.40;;;19.60;61.00;;;;;;5032453;28;20041;-53
2024/03/31 07:08:50;;;;;;;31.83;9.98;;;19.70;61.60;;;;;;5032996;28;20029;-61
2024/03/31 07:11:15;;;;;;;35.05;11.10;;;19.90;61.10;;;;;;5026364;28;20033;-57
2024/03/31 07:13:41;;;;;;;24.17;9.85;;;19.90;61.00;;;;;;5028648;28;20401;-55
2024/03/31 07:16:07;;;;;;;40.60;12.38;;;20.00;60.60;;;;;;5030128;28;20517;-59
2024/03/31 07:18:32;;;;;;;30.83;11.98;;;20.00;62.00;;;;;;5023374;28;20033;-56
2024/03/31 07:20:58;;;;;;;33.10;10.73;;;20.00;61.30;;;;;;5061190;28;20055;-51
2024/03/31 07:23:23;;;;;;;35.55;12.27;;;20.00;61.00;;;;;;5021026;28;21390;-53
2024/03/31 07:25:48;;;;;;;33.08;12.85;;;19.90;60.60;;;;;;5018858;28;20025;-48
2024/03/31 07:28:14;;;;;;;36.38;11.40;;;19.90;60.70;;;;;;5025455;28;20510;-53
2024/03/31 07:30:39;;;;;;;34.30;13.32;;;19.90;60.60;;;;;;5025841;28;20040;-48
2024/03/31 07:33:05;;;;;;;31.40;11.73;;;19.90;60.80;;;;;;5022523;28;20064;-50
2024/03/31 07:35:30;;;;;;;34.70;12.50;;;19.90;60.90;;;;;;5033625;28;20029;-51
2024/03/31 07:37:56;;;;;;;30.20;12.27;;;19.90;60.80;;;;;;5028108;28;20033;-48
2024/03/31 07:40:21;;;;;;;32.50;12.48;;;19.80;60.60;;;;;;5021503;28;20052;-52
2024/03/31 07:42:47;;;;;;;40.40;12.38;;;19.80;60.40;;;;;;5027035;28;20037;-53
2024/03/31 07:45:12;;;;;;;32.83;11.77;;;19.80;60.40;;;;;;5023312;28;20033;-53
2024/03/31 07:47:38;;;;;;;40.75;13.57;;;19.80;60.20;;;;;;5025581;28;20122;-54
2024/03/31 07:50:03;;;;;;;37.53;13.52;;;19.80;60.10;;;;;;5028395;28;20390;-52
2024/03/31 07:52:29;;;;;;;35.92;12.32;;;19.80;59.90;;;;;;5030122;28;20033;-51
2024/03/31 07:54:54;;;;;;;39.60;14.20;;;19.80;59.80;;;;;;5022841;28;20050;-54
2024/03/31 07:57:20;;;;;;;46.17;14.25;;;19.80;59.70;;;;;;5025230;28;20522;-54
2024/03/31 07:59:46;;;;;;;44.10;13.18;;;19.90;59.60;;;;;;5030066;28;20032;-52
2024/03/31 08:02:12;;;;;;;36.03;13.80;;;19.90;59.60;;;;;;5026773;28;20029;-55
2024/03/31 08:04:39;;;;;;;47.25;14.77;;;19.90;59.60;;;;;;5035414;28;20155;-52
2024/03/31 08:07:04;;;;;;;44.22;14.90;;;19.90;59.60;;;;;;5027143;28;20029;-52
2024/03/31 08:09:30;;;;;;;41.55;14.65;;;20.00;59.70;;;;;;5045431;28;20068;-54
2024/03/31 08:11:55;;;;;;;40.60;14.98;;;20.00;59.70;;;;;;5034477;28;20155;-53
2024/03/31 08:14:21;;;;;;;45.88;16.50;;;20.00;60.00;;;;;;5034497;28;20029;-54
2024/03/31 08:16:46;;;;;;;44.33;15.40;;;20.00;60.10;;;;;;5042286;28;20513;-53
2024/03/31 08:19:12;;;;;;;43.05;16.15;;;19.90;60.10;;;;;;5031878;28;20025;-55
2024/03/31 08:21:40;;;;;;;48.42;14.98;;;20.00;60.20;;;;;;5030010;28;20029;-54
2024/03/31 08:24:06;;;;;;;37.17;15.32;;;20.00;60.30;;;;;;5032734;28;20118;-51
2024/03/31 08:26:33;;;;;;;43.28;16.30;;;20.00;61.00;;;;;;5036310;28;20063;-54
2024/03/31 08:28:58;;;;;;;39.33;16.25;;;20.10;62.20;;;;;;5039542;28;20509;-54
2024/03/31 08:31:24;;;;;;;43.65;16.20;;;20.10;62.50;;;;;;5055930;28;20036;-54
2024/03/31 08:33:49;;;;;;;40.00;16.70;;;20.10;62.30;;;;;;5031507;28;20128;-54
2024/03/31 08:36:15;;;;;;;44.70;15.80;;;20.10;62.00;;;;;;5031350;28;20068;-54
2024/03/31 08:38:40;;;;;;;40.80;15.10;;;20.10;61.90;;;;;;5044426;28;20122;-51
2024/03/31 08:41:08;;;;;;;45.58;16.20;;;20.10;62.00;;;;;;5033683;28;20041;-61
2024/03/31 08:43:38;;;;;;;42.88;15.23;;;20.00;62.00;;;;;;5043823;28;20141;-54
2024/03/31 08:46:07;;;;;;;37.13;15.05;;;20.10;62.70;;;;;;5032043;28;20126;-55
2024/03/31 08:48:36;;;;;;;40.40;13.70;;;20.20;62.80;;;;;;5026250;28;20572;-51
2024/03/31 08:51:03;;;;;;;42.88;15.00;;;20.20;62.40;;;;;;5031113;28;20642;-51
2024/03/31 08:53:30;;;;;;;46.63;15.27;;;20.30;63.10;;;;;;5034578;28;20119;-50
2024/03/31 08:55:55;;;;;;;39.28;15.68;;;20.30;62.50;;;;;;5033321;28;20045;-54
2024/03/31 08:58:21;;;;;;;41.30;15.85;;;20.20;62.50;;;;;;5047413;28;20044;-51
2024/03/31 09:00:49;;;;;;;39.13;15.52;;;20.20;63.10;;;;;;5037485;28;20060;-53
2024/03/31 09:03:15;;;;;;;39.17;14.65;;;20.10;62.40;;;;;;5030297;28;20514;-54
2024/03/31 09:05:40;;;;;;;39.38;14.73;;;20.10;62.60;;;;;;5031851;28;20036;-52
2024/03/31 09:08:08;;;;;;;32.63;15.35;;;20.10;62.70;;;;;;5038923;28;20402;-52
2024/03/31 09:10:34;;;;;;;38.67;16.27;;;20.00;62.70;;;;;;5017129;28;20029;-54
2024/03/31 09:13:07;;;;;;;39.83;15.48;;;20.00;62.80;;;;;;5028854;28;20044;-52
2024/03/31 09:15:35;;;;;;;35.42;14.93;;;20.00;63.00;;;;;;5047270;28;20029;-52
2024/03/31 09:18:00;;;;;;;37.00;16.60;;;20.00;63.10;;;;;;5040886;28;20056;-48
2024/03/31 09:20:26;;;;;;;36.40;15.85;;;20.00;63.30;;;;;;5051282;28;21359;-55
2024/03/31 09:22:52;;;;;;;35.78;16.83;;;20.00;63.50;;;;;;5061222;28;20500;-55
2024/03/31 09:25:18;;;;;;;32.28;16.23;;;20.00;63.60;;;;;;5046242;28;20025;-53
2024/03/31 09:27:43;;;;;;;43.75;16.80;;;20.00;63.70;;;;;;5035950;28;20406;-54
2024/03/31 09:30:09;;;;;;;35.60;16.95;;;20.00;63.60;;;;;;5039466;28;20029;-58
2024/03/31 09:32:34;;;;;;;39.30;15.70;;;20.00;63.90;;;;;;5047665;28;20036;-53
2024/03/31 09:35:00;;;;;;;40.72;17.70;;;20.00;63.60;;;;;;5044627;28;20401;-54
2024/03/31 09:37:26;;;;;;;39.40;16.00;;;20.00;63.80;;;;;;5050269;28;20501;-51
2024/03/31 09:39:53;;;;;;;46.72;17.30;;;20.00;63.90;;;;;;5057738;28;20029;-54
2024/03/31 09:42:20;;;;;;;38.60;17.35;;;20.00;64.30;;;;;;5050729;28;20033;-54
2024/03/31 09:44:46;;;;;;;39.05;17.63;;;20.00;64.00;;;;;;5057141;28;20036;-53
2024/03/31 09:47:22;;;;;;;35.50;15.77;;;20.00;64.20;;;;;;5059780;28;20047;-49
2024/03/31 09:50:04;;;;;;;35.00;16.33;;;20.00;64.00;;;;;;5052990;28;20028;-56
2024/03/31 09:52:33;;;;;;;34.42;16.05;;;20.00;63.90;;;;;;5045476;28;20516;-53
2024/03/31 09:55:05;;;;;;;40.28;16.33;;;20.00;63.70;;;;;;5040856;28;20054;-54
2024/03/31 09:57:40;;;;;;;41.63;17.38;;;20.00;63.50;;;;;;5041631;28;20035;-52
2024/03/31 10:00:08;;;;;;;35.00;16.48;;;20.10;63.50;;;;;;5037633;28;20038;-53
2024/03/31 10:02:34;;;;;;;31.38;16.35;;;20.00;63.30;;;;;;5039976;28;20541;-54
2024/03/31 10:05:08;;;;;;;39.28;16.27;;;20.00;63.20;;;;;;5040845;28;20430;-54
2024/03/31 10:07:35;;;;;;;37.17;15.93;;;20.00;63.10;;;;;;5050359;28;20082;-54
2024/03/31 10:10:02;;;;;;;35.30;15.40;;;20.00;63.10;;;;;;5041439;28;20095;-52
2024/03/31 10:12:30;;;;;;;34.10;16.10;;;20.00;63.00;;;;;;5049329;28;20040;-52
2024/03/31 10:14:56;;;;;;;34.30;14.90;;;20.00;63.20;;;;;;5041927;28;20602;-53
2024/03/31 10:17:22;;;;;;;36.38;15.60;;;20.00;63.10;;;;;;5042319;28;20033;-54
2024/03/31 10:19:50;;;;;;;30.42;15.05;;;20.00;63.10;;;;;;5037175;28;20031;-52
2024/03/31 10:22:15;;;;;;;37.50;15.90;;;20.10;63.10;;;;;;5045549;28;20054;-52
2024/03/31 10:24:42;;;;;;;38.17;15.05;;;20.00;63.20;;;;;;5051400;28;20494;-50
2024/03/31 10:27:08;;;;;;;32.33;15.80;;;20.00;63.20;;;;;;5042840;28;20502;-63
2024/03/31 10:29:35;;;;;;;33.78;16.15;;;20.00;63.30;;;;;;5042182;28;20458;-53
2024/03/31 10:32:00;;;;;;;34.95;15.68;;;20.00;63.40;;;;;;5045872;28;20045;-53
2024/03/31 10:34:26;;;;;;;32.45;15.27;;;20.00;63.40;;;;;;5039145;28;20508;-56
2024/03/31 10:36:54;;;;;;;41.67;15.98;;;20.00;63.10;;;;;;5048384;28;20024;-54
2024/03/31 10:39:21;;;;;;;37.53;15.38;;;20.00;63.30;;;;;;5043216;28;20033;-53
2024/03/31 10:41:48;;;;;;;34.35;16.00;;;20.00;63.20;;;;;;5035789;23;20050;-53
2024/03/31 10:44:15;;;;;;;36.67;15.88;;;20.00;63.20;;;;;;4999751;28;20084;-53
2024/03/31 10:46:42;;;;;;;37.00;15.60;;;20.00;63.30;;;;;;5005226;28;20036;-53
2024/03/31 10:49:08;;;;;;;36.92;16.42;;;20.00;63.50;;;;;;5001419;28;20121;-52
2024/03/31 10:51:34;;;;;;;37.67;16.63;;;20.00;63.30;;;;;;4985650;28;20515;-53
2024/03/31 10:54:28;;;;;;;38.83;17.05;;;20.00;64.20;;;;;;4973391;28;20035;-52
2024/03/31 10:57:07;;;;;;;39.55;15.70;;;20.00;63.20;;;;;;4962807;28;20030;-52
2024/03/31 10:59:33;;;;;;;38.90;17.25;;;20.00;63.30;;;;;;4965698;28;21801;-53
2024/03/31 11:02:13;;;;;;;36.83;16.85;;;20.00;63.30;;;;;;4981730;28;20037;-51
2024/03/31 11:04:39;;;;;;;39.75;16.05;;;20.00;63.30;;;;;;4956935;28;20030;-56
2024/03/31 11:07:06;;;;;;;41.58;16.73;;;20.00;63.30;;;;;;4985859;28;20399;-53
2024/03/31 11:09:31;;;;;;;40.83;15.98;;;20.00;63.20;;;;;;4969043;28;20069;-52
2024/03/31 11:11:58;;;;;;;46.15;16.25;;;20.00;63.10;;;;;;4976364;28;20035;-53
2024/03/31 11:14:24;;;;;;;44.95;16.35;;;20.00;63.10;;;;;;4976092;28;20041;-53
2024/03/31 11:16:50;;;;;;;36.83;15.32;;;20.00;63.00;;;;;;4969202;28;20035;-53
2024/03/31 11:19:19;;;;;;;37.88;16.00;;;20.00;63.00;;;;;;4969549;28;20034;-53
2024/03/31 11:21:44;;;;;;;39.53;16.30;;;20.00;62.90;;;;;;4977504;28;20034;-51
2024/03/31 11:24:10;;;;;;;42.08;15.20;;;20.00;62.80;;;;;;4954641;28;20045;-56
2024/03/31 11:26:37;;;;;;;39.10;15.73;;;20.00;62.60;;;;;;4970837;28;20037;-55
2024/03/31 11:29:04;;;;;;;34.28;15.45;;;20.00;62.60;;;;;;4966915;28;20432;-52
2024/03/31 11:31:30;;;;;;;37.90;15.75;;;20.00;62.50;;;;;;4975283;28;20030;-53
2024/03/31 11:33:57;;;;;;;37.72;17.02;;;20.00;62.50;;;;;;4972943;28;20095;-53
2024/03/31 11:36:22;;;;;;;38.22;15.82;;;20.00;62.60;;;;;;4976869;28;20046;-50
2024/03/31 11:38:48;;;;;;;36.53;15.43;;;20.10;62.60;;;;;;4974660;28;20122;-52
2024/03/31 11:41:14;;;;;;;36.08;15.25;;;20.00;62.60;;;;;;4972335;28;20031;-52
2024/03/31 11:43:40;;;;;;;40.35;15.45;;;20.00;62.60;;;;;;4978923;28;20042;-56
2024/03/31 11:46:06;;;;;;;35.85;14.93;;;20.10;62.60;;;;;;4976181;28;20084;-50
2024/03/31 11:48:31;;;;;;;32.67;13.43;;;20.00;62.50;;;;;;4964089;28;20652;-53
2024/03/31 11:50:57;;;;;;;33.45;14.43;;;20.00;62.60;;;;;;4971361;28;20057;-53
2024/03/31 11:53:23;;;;;;;42.17;14.88;;;20.00;62.60;;;;;;4986109;28;20046;-53
2024/03/31 11:55:49;;;;;;;46.78;15.55;;;20.00;62.60;;;;;;4964795;28;20624;-52
2024/03/31 11:58:15;;;;;;;42.25;15.20;;;20.10;62.50;;;;;;4985079;28;20033;-53
2024/03/31 12:00:52;;;;;;;44.22;16.25;;;20.10;62.50;;;;;;4977762;28;20093;-54
2024/03/31 12:03:18;;;;;;;38.30;14.32;;;20.00;63.00;;;;;;4981907;28;20045;-52
2024/03/31 12:05:47;;;;;;;37.38;14.18;;;20.00;62.40;;;;;;4966235;28;20034;-53
2024/03/31 12:08:14;;;;;;;30.05;13.93;;;20.00;62.30;;;;;;4969760;28;20038;-53
2024/03/31 12:10:40;;;;;;;34.28;14.32;;;20.00;62.30;;;;;;4970854;28;20060;-55
2024/03/31 12:13:06;;;;;;;38.00;14.02;;;20.00;62.30;;;;;;4969662;28;20031;-53
2024/03/31 12:15:32;;;;;;;37.83;13.93;;;20.00;62.20;;;;;;4970897;28;20580;-53
2024/03/31 12:17:58;;;;;;;36.60;14.52;;;20.10;62.20;;;;;;4974426;28;20105;-50
2024/03/31 12:20:24;;;;;;;35.22;13.70;;;20.00;62.30;;;;;;4969512;28;20026;-52
2024/03/31 12:22:50;;;;;;;40.95;13.80;;;20.00;62.20;;;;;;4966102;28;20256;-54
2024/03/31 12:25:16;;;;;;;41.78;14.70;;;20.10;62.30;;;;;;4970108;28;20047;-53
2024/03/31 12:27:42;;;;;;;38.80;14.05;;;20.00;62.10;;;;;;4965096;28;20046;-53
2024/03/31 12:30:09;;;;;;;40.30;14.88;;;20.00;62.20;;;;;;4964605;28;20039;-51
2024/03/31 12:32:35;;;;;;;39.55;13.98;;;20.00;62.10;;;;;;4967822;28;20031;-51